sensor_id;sensor_type;location;lat;lon;timestamp;P1;durP1;ratioP1;P2;durP2;ratioP2
4148;SDS011;2088;51.032;7.082;2023-04-28T00:00:36;4.33;;;3.17;;
4148;SDS011;2088;51.032;7.082;2023-04-28T00:03:03;4.03;;;2.90;;
4148;SDS011;2088;51.032;7.082;2023-04-28T00:05:30;11.80;;;3.17;;
4148;SDS011;2088;51.032;7.082;2023-04-28T00:07:57;4.37;;;3.20;;
4148;SDS011;2088;51.032;7.082;2023-04-28T00:10:25;9.30;;;3.13;;
4148;SDS011;2088;51.032;7.082;2023-04-28T00:12:52;5.50;;;2.93;;
4148;SDS011;2088;51.032;7.082;2023-04-28T00:15:20;3.97;;;3.20;;
4148;SDS011;2088;51.032;7.082;2023-04-28T00:17:47;6.17;;;3.10;;
4148;SDS011;2088;51.032;7.082;2023-04-28T00:20:14;6.90;;;3.47;;
4148;SDS011;2088;51.032;7.082;2023-04-28T00:22:42;4.50;;;3.63;;
4148;SDS011;2088;51.032;7.082;2023-04-28T00:25:09;9.03;;;4.03;;
4148;SDS011;2088;51.032;7.082;2023-04-28T00:27:36;10.60;;;4.30;;
4148;SDS011;2088;51.032;7.082;2023-04-28T00:30:03;6.67;;;2.83;;
4148;SDS011;2088;51.032;7.082;2023-04-28T00:32:32;5.13;;;3.07;;
4148;SDS011;2088;51.032;7.082;2023-04-28T00:34:59;5.13;;;3.50;;
4148;SDS011;2088;51.032;7.082;2023-04-28T00:37:26;6.90;;;3.47;;
4148;SDS011;2088;51.032;7.082;2023-04-28T00:39:53;5.70;;;3.47;;
4148;SDS011;2088;51.032;7.082;2023-04-28T00:42:20;7.80;;;3.17;;
4148;SDS011;2088;51.032;7.082;2023-04-28T00:44:48;10.37;;;4.03;;
4148;SDS011;2088;51.032;7.082;2023-04-28T00:47:15;3.23;;;2.77;;
4148;SDS011;2088;51.032;7.082;2023-04-28T00:49:44;5.17;;;3.70;;
4148;SDS011;2088;51.032;7.082;2023-04-28T00:52:13;6.97;;;3.07;;
4148;SDS011;2088;51.032;7.082;2023-04-28T00:54:41;5.90;;;3.03;;
4148;SDS011;2088;51.032;7.082;2023-04-28T00:57:08;5.40;;;2.83;;
4148;SDS011;2088;51.032;7.082;2023-04-28T00:59:35;10.60;;;3.93;;
4148;SDS011;2088;51.032;7.082;2023-04-28T01:02:02;10.77;;;3.43;;
4148;SDS011;2088;51.032;7.082;2023-04-28T01:04:31;4.73;;;3.93;;
4148;SDS011;2088;51.032;7.082;2023-04-28T01:07:00;6.30;;;3.20;;
4148;SDS011;2088;51.032;7.082;2023-04-28T01:09:28;6.70;;;3.53;;
4148;SDS011;2088;51.032;7.082;2023-04-28T01:11:55;3.27;;;2.90;;
4148;SDS011;2088;51.032;7.082;2023-04-28T01:14:22;6.27;;;3.63;;
4148;SDS011;2088;51.032;7.082;2023-04-28T01:16:49;5.70;;;3.30;;
4148;SDS011;2088;51.032;7.082;2023-04-28T01:19:19;5.70;;;3.10;;
4148;SDS011;2088;51.032;7.082;2023-04-28T01:21:47;7.93;;;3.67;;
4148;SDS011;2088;51.032;7.082;2023-04-28T01:24:15;18.50;;;3.73;;
4148;SDS011;2088;51.032;7.082;2023-04-28T01:26:42;8.33;;;3.90;;
4148;SDS011;2088;51.032;7.082;2023-04-28T01:29:10;4.87;;;2.83;;
4148;SDS011;2088;51.032;7.082;2023-04-28T01:31:37;10.60;;;4.43;;
4148;SDS011;2088;51.032;7.082;2023-04-28T01:34:04;9.70;;;3.60;;
4148;SDS011;2088;51.032;7.082;2023-04-28T01:36:31;8.40;;;4.00;;
4148;SDS011;2088;51.032;7.082;2023-04-28T01:38:58;11.33;;;4.20;;
4148;SDS011;2088;51.032;7.082;2023-04-28T01:41:26;8.33;;;3.77;;
4148;SDS011;2088;51.032;7.082;2023-04-28T01:43:53;5.20;;;3.57;;
4148;SDS011;2088;51.032;7.082;2023-04-28T01:46:20;7.37;;;3.87;;
4148;SDS011;2088;51.032;7.082;2023-04-28T01:48:47;3.53;;;3.10;;
4148;SDS011;2088;51.032;7.082;2023-04-28T01:51:14;8.07;;;3.73;;
4148;SDS011;2088;51.032;7.082;2023-04-28T01:53:41;7.33;;;3.53;;
4148;SDS011;2088;51.032;7.082;2023-04-28T01:56:08;6.33;;;3.30;;
4148;SDS011;2088;51.032;7.082;2023-04-28T01:58:37;6.67;;;4.37;;
4148;SDS011;2088;51.032;7.082;2023-04-28T02:01:04;7.40;;;3.70;;
4148;SDS011;2088;51.032;7.082;2023-04-28T02:03:31;6.53;;;3.77;;
4148;SDS011;2088;51.032;7.082;2023-04-28T02:05:58;7.87;;;3.30;;
4148;SDS011;2088;51.032;7.082;2023-04-28T02:08:25;6.67;;;3.97;;
4148;SDS011;2088;51.032;7.082;2023-04-28T02:10:52;8.17;;;4.10;;
4148;SDS011;2088;51.032;7.082;2023-04-28T02:13:21;5.87;;;3.67;;
4148;SDS011;2088;51.032;7.082;2023-04-28T02:15:49;4.33;;;3.63;;
4148;SDS011;2088;51.032;7.082;2023-04-28T02:18:16;5.03;;;3.10;;
4148;SDS011;2088;51.032;7.082;2023-04-28T02:20:43;6.90;;;4.27;;
4148;SDS011;2088;51.032;7.082;2023-04-28T02:23:10;8.00;;;3.97;;
4148;SDS011;2088;51.032;7.082;2023-04-28T02:25:37;6.80;;;4.07;;
4148;SDS011;2088;51.032;7.082;2023-04-28T02:28:04;4.90;;;3.67;;
4148;SDS011;2088;51.032;7.082;2023-04-28T02:30:31;6.60;;;3.60;;
4148;SDS011;2088;51.032;7.082;2023-04-28T02:33:00;15.57;;;4.33;;
4148;SDS011;2088;51.032;7.082;2023-04-28T02:35:27;18.30;;;4.73;;
4148;SDS011;2088;51.032;7.082;2023-04-28T02:37:54;6.60;;;3.90;;
4148;SDS011;2088;51.032;7.082;2023-04-28T02:40:21;7.17;;;3.93;;
4148;SDS011;2088;51.032;7.082;2023-04-28T02:42:48;5.07;;;4.37;;
4148;SDS011;2088;51.032;7.082;2023-04-28T02:45:15;12.73;;;4.40;;
4148;SDS011;2088;51.032;7.082;2023-04-28T02:47:42;6.73;;;4.43;;
4148;SDS011;2088;51.032;7.082;2023-04-28T02:50:10;10.60;;;4.67;;
4148;SDS011;2088;51.032;7.082;2023-04-28T02:52:38;10.53;;;4.47;;
4148;SDS011;2088;51.032;7.082;2023-04-28T02:55:05;7.13;;;4.70;;
4148;SDS011;2088;51.032;7.082;2023-04-28T02:57:32;8.17;;;5.70;;
4148;SDS011;2088;51.032;7.082;2023-04-28T02:59:59;11.83;;;4.83;;
4148;SDS011;2088;51.032;7.082;2023-04-28T03:02:26;4.13;;;3.77;;
4148;SDS011;2088;51.032;7.082;2023-04-28T03:04:53;8.20;;;4.17;;
4148;SDS011;2088;51.032;7.082;2023-04-28T03:07:22;7.73;;;4.47;;
4148;SDS011;2088;51.032;7.082;2023-04-28T03:09:49;5.47;;;3.80;;
4148;SDS011;2088;51.032;7.082;2023-04-28T03:12:16;8.73;;;5.13;;
4148;SDS011;2088;51.032;7.082;2023-04-28T03:14:43;7.63;;;4.07;;
4148;SDS011;2088;51.032;7.082;2023-04-28T03:17:10;12.53;;;4.83;;
4148;SDS011;2088;51.032;7.082;2023-04-28T03:19:38;4.60;;;4.17;;
4148;SDS011;2088;51.032;7.082;2023-04-28T03:22:05;10.47;;;5.90;;
4148;SDS011;2088;51.032;7.082;2023-04-28T03:24:33;8.83;;;4.93;;
4148;SDS011;2088;51.032;7.082;2023-04-28T03:27:00;5.87;;;4.73;;
4148;SDS011;2088;51.032;7.082;2023-04-28T03:29:28;11.47;;;4.37;;
4148;SDS011;2088;51.032;7.082;2023-04-28T03:31:55;9.27;;;4.97;;
4148;SDS011;2088;51.032;7.082;2023-04-28T03:34:22;6.57;;;4.53;;
4148;SDS011;2088;51.032;7.082;2023-04-28T03:36:49;9.30;;;4.97;;
4148;SDS011;2088;51.032;7.082;2023-04-28T03:39:16;7.00;;;4.37;;
4148;SDS011;2088;51.032;7.082;2023-04-28T03:41:44;8.27;;;4.20;;
4148;SDS011;2088;51.032;7.082;2023-04-28T03:44:11;5.00;;;4.00;;
4148;SDS011;2088;51.032;7.082;2023-04-28T03:46:38;8.13;;;4.43;;
4148;SDS011;2088;51.032;7.082;2023-04-28T03:49:05;13.90;;;4.77;;
4148;SDS011;2088;51.032;7.082;2023-04-28T03:51:32;10.57;;;5.00;;
4148;SDS011;2088;51.032;7.082;2023-04-28T03:53:59;12.50;;;5.30;;
4148;SDS011;2088;51.032;7.082;2023-04-28T03:56:27;8.40;;;5.23;;
4148;SDS011;2088;51.032;7.082;2023-04-28T03:58:55;16.80;;;6.37;;
4148;SDS011;2088;51.032;7.082;2023-04-28T04:01:22;8.90;;;5.40;;
4148;SDS011;2088;51.032;7.082;2023-04-28T04:03:49;7.17;;;5.13;;
4148;SDS011;2088;51.032;7.082;2023-04-28T04:06:16;9.30;;;5.10;;
4148;SDS011;2088;51.032;7.082;2023-04-28T04:08:43;8.00;;;4.70;;
4148;SDS011;2088;51.032;7.082;2023-04-28T04:11:11;7.90;;;4.50;;
4148;SDS011;2088;51.032;7.082;2023-04-28T04:13:38;9.90;;;5.07;;
4148;SDS011;2088;51.032;7.082;2023-04-28T04:16:06;6.93;;;4.50;;
4148;SDS011;2088;51.032;7.082;2023-04-28T04:18:33;8.30;;;4.80;;
4148;SDS011;2088;51.032;7.082;2023-04-28T04:21:00;12.60;;;5.60;;
4148;SDS011;2088;51.032;7.082;2023-04-28T04:23:27;12.03;;;5.50;;
4148;SDS011;2088;51.032;7.082;2023-04-28T04:25:55;7.33;;;4.87;;
4148;SDS011;2088;51.032;7.082;2023-04-28T04:28:22;8.30;;;4.33;;
4148;SDS011;2088;51.032;7.082;2023-04-28T04:30:49;7.70;;;5.03;;
4148;SDS011;2088;51.032;7.082;2023-04-28T04:33:18;5.23;;;4.50;;
4148;SDS011;2088;51.032;7.082;2023-04-28T04:35:45;9.20;;;5.03;;
4148;SDS011;2088;51.032;7.082;2023-04-28T04:38:12;7.10;;;4.83;;
4148;SDS011;2088;51.032;7.082;2023-04-28T04:40:39;6.87;;;5.53;;
4148;SDS011;2088;51.032;7.082;2023-04-28T04:43:06;9.43;;;5.00;;
4148;SDS011;2088;51.032;7.082;2023-04-28T04:45:34;8.90;;;5.57;;
4148;SDS011;2088;51.032;7.082;2023-04-28T04:48:01;7.50;;;5.50;;
4148;SDS011;2088;51.032;7.082;2023-04-28T04:50:30;12.97;;;5.37;;
4148;SDS011;2088;51.032;7.082;2023-04-28T04:52:57;8.10;;;4.70;;
4148;SDS011;2088;51.032;7.082;2023-04-28T04:55:24;8.37;;;4.83;;
4148;SDS011;2088;51.032;7.082;2023-04-28T04:57:51;6.37;;;4.77;;
4148;SDS011;2088;51.032;7.082;2023-04-28T05:00:18;8.10;;;4.70;;
4148;SDS011;2088;51.032;7.082;2023-04-28T05:02:45;7.57;;;4.73;;
4148;SDS011;2088;51.032;7.082;2023-04-28T05:05:12;6.03;;;4.70;;
4148;SDS011;2088;51.032;7.082;2023-04-28T05:07:41;8.10;;;4.70;;
4148;SDS011;2088;51.032;7.082;2023-04-28T05:10:08;9.93;;;5.20;;
4148;SDS011;2088;51.032;7.082;2023-04-28T05:12:36;8.10;;;5.30;;
4148;SDS011;2088;51.032;7.082;2023-04-28T05:15:04;5.70;;;4.70;;
4148;SDS011;2088;51.032;7.082;2023-04-28T05:17:31;5.33;;;4.53;;
4148;SDS011;2088;51.032;7.082;2023-04-28T05:19:58;6.97;;;4.43;;
4148;SDS011;2088;51.032;7.082;2023-04-28T05:22:26;11.80;;;4.73;;
4148;SDS011;2088;51.032;7.082;2023-04-28T05:24:54;7.33;;;4.70;;
4148;SDS011;2088;51.032;7.082;2023-04-28T05:27:21;13.33;;;4.70;;
4148;SDS011;2088;51.032;7.082;2023-04-28T05:29:48;6.00;;;4.20;;
4148;SDS011;2088;51.032;7.082;2023-04-28T05:32:15;7.30;;;4.13;;
4148;SDS011;2088;51.032;7.082;2023-04-28T05:34:42;9.07;;;5.10;;
4148;SDS011;2088;51.032;7.082;2023-04-28T05:37:09;9.10;;;4.83;;
4148;SDS011;2088;51.032;7.082;2023-04-28T05:39:36;7.03;;;5.07;;
4148;SDS011;2088;51.032;7.082;2023-04-28T05:42:04;8.23;;;4.47;;
4148;SDS011;2088;51.032;7.082;2023-04-28T05:44:31;12.23;;;4.57;;
4148;SDS011;2088;51.032;7.082;2023-04-28T05:46:58;10.73;;;5.20;;
4148;SDS011;2088;51.032;7.082;2023-04-28T05:49:25;8.70;;;4.20;;
4148;SDS011;2088;51.032;7.082;2023-04-28T05:51:52;11.20;;;4.60;;
4148;SDS011;2088;51.032;7.082;2023-04-28T05:54:19;5.90;;;4.50;;
4148;SDS011;2088;51.032;7.082;2023-04-28T05:56:46;6.00;;;4.67;;
4148;SDS011;2088;51.032;7.082;2023-04-28T05:59:15;6.03;;;4.17;;
4148;SDS011;2088;51.032;7.082;2023-04-28T06:01:42;6.43;;;4.80;;
4148;SDS011;2088;51.032;7.082;2023-04-28T06:04:09;6.97;;;5.13;;
4148;SDS011;2088;51.032;7.082;2023-04-28T06:06:36;5.63;;;4.60;;
4148;SDS011;2088;51.032;7.082;2023-04-28T06:09:03;9.57;;;5.13;;
4148;SDS011;2088;51.032;7.082;2023-04-28T06:11:31;5.53;;;4.70;;
4148;SDS011;2088;51.032;7.082;2023-04-28T06:13:58;10.43;;;4.57;;
4148;SDS011;2088;51.032;7.082;2023-04-28T06:16:27;8.37;;;5.17;;
4148;SDS011;2088;51.032;7.082;2023-04-28T06:18:54;6.00;;;4.80;;
4148;SDS011;2088;51.032;7.082;2023-04-28T06:21:21;6.10;;;4.60;;
4148;SDS011;2088;51.032;7.082;2023-04-28T06:23:49;6.63;;;4.53;;
4148;SDS011;2088;51.032;7.082;2023-04-28T06:26:16;7.00;;;4.97;;
4148;SDS011;2088;51.032;7.082;2023-04-28T06:28:43;8.33;;;5.50;;
4148;SDS011;2088;51.032;7.082;2023-04-28T06:31:10;15.50;;;5.43;;
4148;SDS011;2088;51.032;7.082;2023-04-28T06:33:38;5.83;;;4.80;;
4148;SDS011;2088;51.032;7.082;2023-04-28T06:36:06;8.97;;;5.00;;
4148;SDS011;2088;51.032;7.082;2023-04-28T06:38:33;7.37;;;4.77;;
4148;SDS011;2088;51.032;7.082;2023-04-28T06:41:01;6.10;;;4.67;;
4148;SDS011;2088;51.032;7.082;2023-04-28T06:43:28;6.43;;;4.60;;
4148;SDS011;2088;51.032;7.082;2023-04-28T06:45:55;9.87;;;5.00;;
4148;SDS011;2088;51.032;7.082;2023-04-28T06:48:22;9.30;;;4.70;;
4148;SDS011;2088;51.032;7.082;2023-04-28T06:50:51;6.10;;;4.80;;
4148;SDS011;2088;51.032;7.082;2023-04-28T06:53:18;6.53;;;4.27;;
4148;SDS011;2088;51.032;7.082;2023-04-28T06:55:45;7.50;;;4.90;;
4148;SDS011;2088;51.032;7.082;2023-04-28T06:58:12;7.53;;;4.90;;
4148;SDS011;2088;51.032;7.082;2023-04-28T07:00:40;5.03;;;4.57;;
4148;SDS011;2088;51.032;7.082;2023-04-28T07:03:07;8.20;;;4.70;;
4148;SDS011;2088;51.032;7.082;2023-04-28T07:05:34;9.73;;;4.80;;
4148;SDS011;2088;51.032;7.082;2023-04-28T07:08:02;8.57;;;5.27;;
4148;SDS011;2088;51.032;7.082;2023-04-28T07:10:30;9.67;;;4.40;;
4148;SDS011;2088;51.032;7.082;2023-04-28T07:12:57;5.73;;;4.80;;
4148;SDS011;2088;51.032;7.082;2023-04-28T07:15:24;11.50;;;5.00;;
4148;SDS011;2088;51.032;7.082;2023-04-28T07:17:51;8.57;;;4.63;;
4148;SDS011;2088;51.032;7.082;2023-04-28T07:20:18;8.00;;;4.77;;
4148;SDS011;2088;51.032;7.082;2023-04-28T07:22:45;6.03;;;5.43;;
4148;SDS011;2088;51.032;7.082;2023-04-28T07:25:13;5.17;;;4.67;;
4148;SDS011;2088;51.032;7.082;2023-04-28T07:27:40;7.33;;;4.43;;
4148;SDS011;2088;51.032;7.082;2023-04-28T07:30:08;5.03;;;4.00;;
4148;SDS011;2088;51.032;7.082;2023-04-28T07:32:35;6.90;;;4.83;;
4148;SDS011;2088;51.032;7.082;2023-04-28T07:35:02;5.00;;;4.10;;
4148;SDS011;2088;51.032;7.082;2023-04-28T07:37:29;6.63;;;4.77;;
4148;SDS011;2088;51.032;7.082;2023-04-28T07:39:56;6.17;;;4.07;;
4148;SDS011;2088;51.032;7.082;2023-04-28T07:42:25;6.90;;;4.80;;
4148;SDS011;2088;51.032;7.082;2023-04-28T07:44:52;7.77;;;4.60;;
4148;SDS011;2088;51.032;7.082;2023-04-28T07:47:19;7.27;;;5.17;;
4148;SDS011;2088;51.032;7.082;2023-04-28T07:49:46;14.30;;;4.93;;
4148;SDS011;2088;51.032;7.082;2023-04-28T07:52:13;7.80;;;4.50;;
4148;SDS011;2088;51.032;7.082;2023-04-28T07:54:40;6.37;;;4.37;;
4148;SDS011;2088;51.032;7.082;2023-04-28T07:57:07;7.43;;;4.43;;
4148;SDS011;2088;51.032;7.082;2023-04-28T07:59:36;10.13;;;4.60;;
4148;SDS011;2088;51.032;7.082;2023-04-28T08:02:03;10.23;;;4.60;;
4148;SDS011;2088;51.032;7.082;2023-04-28T08:04:30;9.87;;;5.40;;
4148;SDS011;2088;51.032;7.082;2023-04-28T08:06:58;7.00;;;5.00;;
4148;SDS011;2088;51.032;7.082;2023-04-28T08:09:25;8.73;;;4.73;;
4148;SDS011;2088;51.032;7.082;2023-04-28T08:11:53;6.10;;;4.40;;
4148;SDS011;2088;51.032;7.082;2023-04-28T08:14:20;6.10;;;4.00;;
4148;SDS011;2088;51.032;7.082;2023-04-28T08:16:48;6.27;;;4.00;;
4148;SDS011;2088;51.032;7.082;2023-04-28T08:19:15;20.53;;;5.70;;
4148;SDS011;2088;51.032;7.082;2023-04-28T08:21:42;9.80;;;4.47;;
4148;SDS011;2088;51.032;7.082;2023-04-28T08:24:09;10.00;;;5.30;;
4148;SDS011;2088;51.032;7.082;2023-04-28T08:26:36;4.70;;;3.97;;
4148;SDS011;2088;51.032;7.082;2023-04-28T08:29:03;9.77;;;5.33;;
4148;SDS011;2088;51.032;7.082;2023-04-28T08:31:30;9.60;;;4.13;;
4148;SDS011;2088;51.032;7.082;2023-04-28T08:33:59;8.37;;;4.30;;
4148;SDS011;2088;51.032;7.082;2023-04-28T08:36:26;6.47;;;4.60;;
4148;SDS011;2088;51.032;7.082;2023-04-28T08:38:56;6.80;;;4.60;;
4148;SDS011;2088;51.032;7.082;2023-04-28T08:41:25;6.63;;;3.90;;
4148;SDS011;2088;51.032;7.082;2023-04-28T08:43:53;7.27;;;4.60;;
4148;SDS011;2088;51.032;7.082;2023-04-28T08:46:21;8.40;;;5.20;;
4148;SDS011;2088;51.032;7.082;2023-04-28T08:48:48;7.80;;;4.67;;
4148;SDS011;2088;51.032;7.082;2023-04-28T08:51:22;10.70;;;5.30;;
4148;SDS011;2088;51.032;7.082;2023-04-28T08:53:52;5.93;;;3.93;;
4148;SDS011;2088;51.032;7.082;2023-04-28T08:56:20;12.27;;;5.10;;
4148;SDS011;2088;51.032;7.082;2023-04-28T08:58:47;8.27;;;4.47;;
4148;SDS011;2088;51.032;7.082;2023-04-28T09:01:15;5.73;;;4.77;;
4148;SDS011;2088;51.032;7.082;2023-04-28T09:03:42;5.13;;;4.03;;
4148;SDS011;2088;51.032;7.082;2023-04-28T09:06:11;5.77;;;4.10;;
4148;SDS011;2088;51.032;7.082;2023-04-28T09:08:39;9.10;;;4.23;;
4148;SDS011;2088;51.032;7.082;2023-04-28T09:11:07;5.07;;;3.50;;
4148;SDS011;2088;51.032;7.082;2023-04-28T09:13:35;5.53;;;3.53;;
4148;SDS011;2088;51.032;7.082;2023-04-28T09:16:02;5.73;;;4.00;;
4148;SDS011;2088;51.032;7.082;2023-04-28T09:18:30;7.90;;;4.47;;
4148;SDS011;2088;51.032;7.082;2023-04-28T09:21:01;4.40;;;3.80;;
4148;SDS011;2088;51.032;7.082;2023-04-28T09:23:29;7.00;;;4.50;;
4148;SDS011;2088;51.032;7.082;2023-04-28T09:25:59;4.00;;;3.53;;
4148;SDS011;2088;51.032;7.082;2023-04-28T09:28:26;5.33;;;4.83;;
4148;SDS011;2088;51.032;7.082;2023-04-28T09:30:53;6.70;;;3.90;;
4148;SDS011;2088;51.032;7.082;2023-04-28T09:33:21;5.40;;;4.50;;
4148;SDS011;2088;51.032;7.082;2023-04-28T09:35:48;10.20;;;4.70;;
4148;SDS011;2088;51.032;7.082;2023-04-28T09:38:15;10.57;;;4.30;;
4148;SDS011;2088;51.032;7.082;2023-04-28T09:40:49;6.30;;;4.60;;
4148;SDS011;2088;51.032;7.082;2023-04-28T09:43:28;5.50;;;4.60;;
4148;SDS011;2088;51.032;7.082;2023-04-28T09:45:56;6.37;;;4.90;;
4148;SDS011;2088;51.032;7.082;2023-04-28T09:48:30;14.90;;;5.57;;
4148;SDS011;2088;51.032;7.082;2023-04-28T09:50:57;5.20;;;4.70;;
4148;SDS011;2088;51.032;7.082;2023-04-28T09:53:25;6.30;;;5.10;;
4148;SDS011;2088;51.032;7.082;2023-04-28T09:55:53;7.73;;;5.10;;
4148;SDS011;2088;51.032;7.082;2023-04-28T09:58:21;6.10;;;4.73;;
4148;SDS011;2088;51.032;7.082;2023-04-28T10:00:50;8.10;;;5.17;;
4148;SDS011;2088;51.032;7.082;2023-04-28T10:03:20;12.80;;;5.00;;
4148;SDS011;2088;51.032;7.082;2023-04-28T10:05:48;6.40;;;4.80;;
4148;SDS011;2088;51.032;7.082;2023-04-28T10:08:17;5.63;;;5.03;;
4148;SDS011;2088;51.032;7.082;2023-04-28T10:10:44;5.70;;;5.00;;
4148;SDS011;2088;51.032;7.082;2023-04-28T10:13:13;6.20;;;4.63;;
4148;SDS011;2088;51.032;7.082;2023-04-28T10:15:41;13.93;;;5.07;;
4148;SDS011;2088;51.032;7.082;2023-04-28T10:18:09;7.93;;;6.77;;
4148;SDS011;2088;51.032;7.082;2023-04-28T10:20:37;6.90;;;5.93;;
4148;SDS011;2088;51.032;7.082;2023-04-28T10:23:08;7.70;;;5.60;;
4148;SDS011;2088;51.032;7.082;2023-04-28T10:25:43;9.23;;;5.70;;
4148;SDS011;2088;51.032;7.082;2023-04-28T10:28:13;8.90;;;5.57;;
4148;SDS011;2088;51.032;7.082;2023-04-28T10:30:41;9.70;;;6.40;;
4148;SDS011;2088;51.032;7.082;2023-04-28T10:33:24;6.10;;;5.40;;
4148;SDS011;2088;51.032;7.082;2023-04-28T10:35:52;9.30;;;5.90;;
4148;SDS011;2088;51.032;7.082;2023-04-28T10:38:19;13.23;;;5.63;;
4148;SDS011;2088;51.032;7.082;2023-04-28T10:40:46;10.53;;;6.37;;
4148;SDS011;2088;51.032;7.082;2023-04-28T10:43:23;7.60;;;5.53;;
4148;SDS011;2088;51.032;7.082;2023-04-28T10:45:58;7.07;;;5.17;;
4148;SDS011;2088;51.032;7.082;2023-04-28T10:51:27;7.13;;;5.77;;
4148;SDS011;2088;51.032;7.082;2023-04-28T10:54:14;9.30;;;5.87;;
4148;SDS011;2088;51.032;7.082;2023-04-28T10:59:36;8.30;;;6.47;;
4148;SDS011;2088;51.032;7.082;2023-04-28T11:07:29;7.27;;;5.90;;
4148;SDS011;2088;51.032;7.082;2023-04-28T11:09:56;9.83;;;6.67;;
4148;SDS011;2088;51.032;7.082;2023-04-28T11:12:23;8.53;;;6.07;;
4148;SDS011;2088;51.032;7.082;2023-04-28T11:14:51;8.50;;;6.90;;
4148;SDS011;2088;51.032;7.082;2023-04-28T11:17:19;7.23;;;5.97;;
4148;SDS011;2088;51.032;7.082;2023-04-28T11:20:04;9.23;;;5.90;;
4148;SDS011;2088;51.032;7.082;2023-04-28T11:22:34;7.10;;;6.40;;
4148;SDS011;2088;51.032;7.082;2023-04-28T11:25:01;9.30;;;5.90;;
4148;SDS011;2088;51.032;7.082;2023-04-28T11:27:29;7.20;;;6.10;;
4148;SDS011;2088;51.032;7.082;2023-04-28T11:29:56;8.10;;;5.03;;
4148;SDS011;2088;51.032;7.082;2023-04-28T11:32:25;6.50;;;5.33;;
4148;SDS011;2088;51.032;7.082;2023-04-28T11:34:53;5.40;;;4.43;;
4148;SDS011;2088;51.032;7.082;2023-04-28T11:37:20;6.63;;;5.30;;
4148;SDS011;2088;51.032;7.082;2023-04-28T11:39:48;8.03;;;5.50;;
4148;SDS011;2088;51.032;7.082;2023-04-28T11:42:15;7.73;;;5.60;;
4148;SDS011;2088;51.032;7.082;2023-04-28T11:44:48;5.60;;;5.07;;
4148;SDS011;2088;51.032;7.082;2023-04-28T11:47:16;7.67;;;5.20;;
4148;SDS011;2088;51.032;7.082;2023-04-28T11:49:53;10.40;;;5.37;;
4148;SDS011;2088;51.032;7.082;2023-04-28T11:52:20;6.87;;;4.73;;
4148;SDS011;2088;51.032;7.082;2023-04-28T11:54:53;6.53;;;5.20;;
4148;SDS011;2088;51.032;7.082;2023-04-28T11:57:22;6.40;;;5.03;;
4148;SDS011;2088;51.032;7.082;2023-04-28T11:59:49;6.00;;;5.40;;
4148;SDS011;2088;51.032;7.082;2023-04-28T12:02:23;6.67;;;5.97;;
4148;SDS011;2088;51.032;7.082;2023-04-28T12:04:51;8.47;;;7.00;;
4148;SDS011;2088;51.032;7.082;2023-04-28T12:07:19;7.30;;;6.60;;
4148;SDS011;2088;51.032;7.082;2023-04-28T12:09:46;9.53;;;6.87;;
4148;SDS011;2088;51.032;7.082;2023-04-28T12:12:15;7.10;;;6.40;;
4148;SDS011;2088;51.032;7.082;2023-04-28T12:14:52;8.83;;;7.33;;
4148;SDS011;2088;51.032;7.082;2023-04-28T12:17:23;10.40;;;6.73;;
4148;SDS011;2088;51.032;7.082;2023-04-28T12:19:50;7.07;;;6.37;;
4148;SDS011;2088;51.032;7.082;2023-04-28T12:22:17;8.10;;;7.30;;
4148;SDS011;2088;51.032;7.082;2023-04-28T12:24:44;11.40;;;8.50;;
4148;SDS011;2088;51.032;7.082;2023-04-28T12:27:19;9.03;;;7.80;;
4148;SDS011;2088;51.032;7.082;2023-04-28T12:29:49;13.87;;;7.97;;
4148;SDS011;2088;51.032;7.082;2023-04-28T12:32:16;11.27;;;8.00;;
4148;SDS011;2088;51.032;7.082;2023-04-28T12:34:44;8.43;;;6.97;;
4148;SDS011;2088;51.032;7.082;2023-04-28T12:37:12;8.13;;;7.20;;
4148;SDS011;2088;51.032;7.082;2023-04-28T12:39:39;7.37;;;6.77;;
4148;SDS011;2088;51.032;7.082;2023-04-28T12:42:07;8.10;;;7.30;;
4148;SDS011;2088;51.032;7.082;2023-04-28T12:44:36;6.90;;;6.20;;
4148;SDS011;2088;51.032;7.082;2023-04-28T12:47:03;8.80;;;7.90;;
4148;SDS011;2088;51.032;7.082;2023-04-28T12:49:31;8.60;;;7.20;;
4148;SDS011;2088;51.032;7.082;2023-04-28T12:51:59;9.00;;;8.20;;
4148;SDS011;2088;51.032;7.082;2023-04-28T12:54:26;11.37;;;7.30;;
4148;SDS011;2088;51.032;7.082;2023-04-28T12:56:53;9.40;;;7.23;;
4148;SDS011;2088;51.032;7.082;2023-04-28T12:59:20;7.60;;;6.80;;
4148;SDS011;2088;51.032;7.082;2023-04-28T13:01:49;6.70;;;6.10;;
4148;SDS011;2088;51.032;7.082;2023-04-28T13:04:16;7.33;;;6.63;;
4148;SDS011;2088;51.032;7.082;2023-04-28T13:06:43;6.93;;;6.23;;
4148;SDS011;2088;51.032;7.082;2023-04-28T13:09:10;9.73;;;6.90;;
4148;SDS011;2088;51.032;7.082;2023-04-28T13:11:37;7.27;;;6.57;;
4148;SDS011;2088;51.032;7.082;2023-04-28T13:14:05;5.97;;;5.37;;
4148;SDS011;2088;51.032;7.082;2023-04-28T13:16:32;5.50;;;5.00;;
4148;SDS011;2088;51.032;7.082;2023-04-28T13:19:01;5.10;;;4.63;;
4148;SDS011;2088;51.032;7.082;2023-04-28T13:21:33;6.63;;;6.00;;
4148;SDS011;2088;51.032;7.082;2023-04-28T13:24:01;6.50;;;5.57;;
4148;SDS011;2088;51.032;7.082;2023-04-28T13:26:28;12.13;;;5.70;;
4148;SDS011;2088;51.032;7.082;2023-04-28T13:28:55;7.50;;;6.63;;
4148;SDS011;2088;51.032;7.082;2023-04-28T13:31:22;11.50;;;7.30;;
4148;SDS011;2088;51.032;7.082;2023-04-28T13:33:49;8.73;;;7.83;;
4148;SDS011;2088;51.032;7.082;2023-04-28T13:36:18;10.10;;;8.70;;
4148;SDS011;2088;51.032;7.082;2023-04-28T13:38:45;15.10;;;8.70;;
4148;SDS011;2088;51.032;7.082;2023-04-28T13:41:13;10.40;;;9.30;;
4148;SDS011;2088;51.032;7.082;2023-04-28T13:43:40;8.63;;;7.80;;
4148;SDS011;2088;51.032;7.082;2023-04-28T13:46:07;9.23;;;8.37;;
4148;SDS011;2088;51.032;7.082;2023-04-28T13:48:34;7.70;;;6.60;;
4148;SDS011;2088;51.032;7.082;2023-04-28T13:51:02;10.87;;;7.93;;
4148;SDS011;2088;51.032;7.082;2023-04-28T13:53:30;8.53;;;7.63;;
4148;SDS011;2088;51.032;7.082;2023-04-28T13:55:58;7.47;;;6.77;;
4148;SDS011;2088;51.032;7.082;2023-04-28T13:58:25;7.20;;;6.50;;
4148;SDS011;2088;51.032;7.082;2023-04-28T14:00:53;11.03;;;6.50;;
4148;SDS011;2088;51.032;7.082;2023-04-28T14:03:21;8.00;;;5.60;;
4148;SDS011;2088;51.032;7.082;2023-04-28T14:05:48;5.90;;;5.40;;
4148;SDS011;2088;51.032;7.082;2023-04-28T14:08:16;4.33;;;3.93;;
4148;SDS011;2088;51.032;7.082;2023-04-28T14:10:45;4.60;;;4.20;;
4148;SDS011;2088;51.032;7.082;2023-04-28T14:13:12;5.50;;;5.00;;
4148;SDS011;2088;51.032;7.082;2023-04-28T14:15:39;6.13;;;4.63;;
4148;SDS011;2088;51.032;7.082;2023-04-28T14:18:07;4.77;;;3.70;;
4148;SDS011;2088;51.032;7.082;2023-04-28T14:20:35;10.20;;;5.00;;
4148;SDS011;2088;51.032;7.082;2023-04-28T14:23:02;5.00;;;4.60;;
4148;SDS011;2088;51.032;7.082;2023-04-28T14:25:29;6.80;;;5.97;;
4148;SDS011;2088;51.032;7.082;2023-04-28T14:27:57;4.87;;;4.47;;
4148;SDS011;2088;51.032;7.082;2023-04-28T14:30:24;6.47;;;5.60;;
4148;SDS011;2088;51.032;7.082;2023-04-28T14:32:51;6.80;;;6.10;;
4148;SDS011;2088;51.032;7.082;2023-04-28T14:35:18;6.57;;;5.40;;
4148;SDS011;2088;51.032;7.082;2023-04-28T14:37:46;5.00;;;4.50;;
4148;SDS011;2088;51.032;7.082;2023-04-28T14:40:13;4.90;;;4.40;;
4148;SDS011;2088;51.032;7.082;2023-04-28T14:42:41;4.83;;;4.00;;
4148;SDS011;2088;51.032;7.082;2023-04-28T14:45:10;6.33;;;4.90;;
4148;SDS011;2088;51.032;7.082;2023-04-28T14:47:38;5.97;;;5.10;;
4148;SDS011;2088;51.032;7.082;2023-04-28T14:50:05;5.67;;;4.57;;
4148;SDS011;2088;51.032;7.082;2023-04-28T14:52:33;6.63;;;4.63;;
4148;SDS011;2088;51.032;7.082;2023-04-28T14:55:00;5.37;;;4.40;;
4148;SDS011;2088;51.032;7.082;2023-04-28T14:57:29;4.30;;;3.73;;
4148;SDS011;2088;51.032;7.082;2023-04-28T14:59:58;4.90;;;4.40;;
4148;SDS011;2088;51.032;7.082;2023-04-28T15:02:26;6.30;;;4.47;;
4148;SDS011;2088;51.032;7.082;2023-04-28T15:04:54;6.50;;;4.20;;
4148;SDS011;2088;51.032;7.082;2023-04-28T15:07:22;4.40;;;3.47;;
4148;SDS011;2088;51.032;7.082;2023-04-28T15:09:52;7.03;;;1.77;;
4148;SDS011;2088;51.032;7.082;2023-04-28T15:12:19;1.50;;;1.40;;
4148;SDS011;2088;51.032;7.082;2023-04-28T15:14:46;1.60;;;1.23;;
4148;SDS011;2088;51.032;7.082;2023-04-28T15:17:13;3.40;;;1.90;;
4148;SDS011;2088;51.032;7.082;2023-04-28T15:19:42;4.80;;;1.40;;
4148;SDS011;2088;51.032;7.082;2023-04-28T15:22:09;8.23;;;1.97;;
4148;SDS011;2088;51.032;7.082;2023-04-28T15:24:36;1.63;;;1.30;;
4148;SDS011;2088;51.032;7.082;2023-04-28T15:27:03;1.83;;;1.47;;